Fair Haven, VT

2014 Szeptember 23 02:21 PM (EDT időzóna) (GMT -0400)
Crystal Beach | Change Station
CLOSE
Current Station
Personal Weather Stations
Location: Bomoseen, VT
Elevation: 446 ft
Közeli meteorológiai állomások

Elev 446 ft 43.66 °N, 73.19 °W | Updated 0 second ago

Borús
Borús
59.7 °F
Hőérzet 59.7 °F
N
13.0
Szél: változó Szél: from nyugat-délnyugati
Gusts 13.0 mph

Ma
High -- | Low -- °F
--% Csapadék valószínű
Tegnapi
High -- | Low -- °F
Precip. -- hvlyk.
6:41 AM 6:48 PM
Fogyó holdsarló, 0% visible
Légnyomás 30.28 hvlyk.
Látótávolság 10.0 mérföld
Felhők Borús 3500 ft
Harmatpont 47 °F
Páratartalom 63%
Rainfall 0.00 hvlyk.
Hóréteg vastagsága Not available.
UV 2 out of 12
Pollen 2.30 out of 12
A levegő minősége Not available.
Flu Activity Not available.
METAR KRUT 231815Z 26007KT 10SM OVC035 14/06 A3028 RMK AO1

More Conditions Fewer Conditions

Légnyomás 30.28 hvlyk.
Látótávolság 10.0 mérföld
Felhők Borús 3500 ft
Harmatpont 47 °F
Páratartalom 63%
Rainfall 0.00 hvlyk.
Hóréteg vastagsága Not available.
UV 2 out of 12
Pollen 2.30 out of 12
A levegő minősége Not available.
Flu Activity Not available.
METAR KRUT 231815Z 26007KT 10SM OVC035 14/06 A3028 RMK AO1

More Conditions Fewer Conditions

10-Day Weather Forecast

Almanac

Csillagászat

Sep. 23, 2014 Kel Nyugszik
Tényleges idő 6:41 AM EDT 6:48 PM EDT
Civil alkony 6:12 AM EDT 7:17 PM EDT
Tengerészeti alkony 5:39 AM EDT 7:50 PM EDT
Csillagászati alkony 5:04 AM EDT 8:24 PM EDT
Hold 6:02 AM EDT 6:25 PM EDT
Látható fény időtartama 13h 04m
A nap hossza
12h 07m
Tomorrow will be 2m 57s shorter.
Fogyó holdsarló, 0% of the Moon is Illuminated
Ma
Fogyó holdsarló
Sep 24
Új
Oct 1
első negyed
Oct 8
telihold
Oct 15
utolsó negyed

Today's Extremes

State Highs State Lows

Community

WunderPhotos

Upload Photos

1,755,771 Fotók feltöltve.

Nearby

A levegő minősége

  A levegő minősége AQ Index Szennyezőanyag
Tegnapi
OZONE
Kedd
PM2.5
Kedd
OZONE

Hóréteg vastagsága

Station Depth Elevation
No new snow has been reported.

Earthquake Activity

város Distance Mag. Time & Date
No recent earthquake activity has been reported nearby.
Minimum magnitude displayed is 2.5.

Coastal Water Temperatures

Hely Hőmérséklet
No Stations Reporting

Közeli meteorológiai állomások